sensor_id;sensor_type;location;lat;lon;timestamp;temperature;humidity
13049;DHT22;6591;51.446;5.404;2022-08-18T00:01:10;21.30;99.90
13049;DHT22;6591;51.446;5.404;2022-08-18T00:03:41;21.30;99.90
13049;DHT22;6591;51.446;5.404;2022-08-18T00:06:25;22.40;99.90
13049;DHT22;6591;51.446;5.404;2022-08-18T00:08:57;23.20;99.90
13049;DHT22;6591;51.446;5.404;2022-08-18T00:11:27;21.30;99.90
13049;DHT22;6591;51.446;5.404;2022-08-18T00:14:14;21.20;99.90
13049;DHT22;6591;51.446;5.404;2022-08-18T00:16:50;21.20;99.90
13049;DHT22;6591;51.446;5.404;2022-08-18T00:19:20;23.40;99.90
13049;DHT22;6591;51.446;5.404;2022-08-18T00:22:10;21.10;99.90
13049;DHT22;6591;51.446;5.404;2022-08-18T00:24:43;21.40;99.90
13049;DHT22;6591;51.446;5.404;2022-08-18T00:27:28;21.10;99.90
13049;DHT22;6591;51.446;5.404;2022-08-18T00:29:59;21.10;99.90
13049;DHT22;6591;51.446;5.404;2022-08-18T00:32:33;21.20;99.90
13049;DHT22;6591;51.446;5.404;2022-08-18T00:37:35;21.20;99.90
13049;DHT22;6591;51.446;5.404;2022-08-18T00:40:04;21.80;99.90
13049;DHT22;6591;51.446;5.404;2022-08-18T00:42:42;20.80;99.90
13049;DHT22;6591;51.446;5.404;2022-08-18T00:45:16;21.20;99.90
13049;DHT22;6591;51.446;5.404;2022-08-18T00:47:46;21.20;99.90
13049;DHT22;6591;51.446;5.404;2022-08-18T00:50:17;24.00;99.90
13049;DHT22;6591;51.446;5.404;2022-08-18T00:53:16;21.50;99.90
13049;DHT22;6591;51.446;5.404;2022-08-18T00:56:17;21.30;99.90
13049;DHT22;6591;51.446;5.404;2022-08-18T00:59:04;21.30;99.90
13049;DHT22;6591;51.446;5.404;2022-08-18T01:01:36;19.50;99.90
13049;DHT22;6591;51.446;5.404;2022-08-18T01:04:15;21.20;99.90
13049;DHT22;6591;51.446;5.404;2022-08-18T01:06:55;21.30;99.90
13049;DHT22;6591;51.446;5.404;2022-08-18T01:09:27;21.20;99.90
13049;DHT22;6591;51.446;5.404;2022-08-18T01:11:54;22.10;99.90
13049;DHT22;6591;51.446;5.404;2022-08-18T01:14:22;21.20;99.90
13049;DHT22;6591;51.446;5.404;2022-08-18T01:16:50;21.70;99.90
13049;DHT22;6591;51.446;5.404;2022-08-18T01:19:37;21.10;99.90
13049;DHT22;6591;51.446;5.404;2022-08-18T01:22:36;21.00;99.90
13049;DHT22;6591;51.446;5.404;2022-08-18T01:25:09;21.00;99.90
13049;DHT22;6591;51.446;5.404;2022-08-18T01:27:55;22.60;99.90
13049;DHT22;6591;51.446;5.404;2022-08-18T01:30:27;21.00;99.90
13049;DHT22;6591;51.446;5.404;2022-08-18T01:32:57;20.80;99.90
13049;DHT22;6591;51.446;5.404;2022-08-18T01:35:27;20.90;99.90
13049;DHT22;6591;51.446;5.404;2022-08-18T01:38:07;22.20;99.90
13049;DHT22;6591;51.446;5.404;2022-08-18T01:40:34;22.80;99.90
13049;DHT22;6591;51.446;5.404;2022-08-18T01:43:21;23.00;99.90
13049;DHT22;6591;51.446;5.404;2022-08-18T01:45:48;22.60;99.90
13049;DHT22;6591;51.446;5.404;2022-08-18T01:48:16;20.50;99.90
13049;DHT22;6591;51.446;5.404;2022-08-18T01:50:43;20.50;99.90
13049;DHT22;6591;51.446;5.404;2022-08-18T01:53:11;20.40;99.90
13049;DHT22;6591;51.446;5.404;2022-08-18T01:55:40;19.70;99.90
13049;DHT22;6591;51.446;5.404;2022-08-18T01:58:10;21.10;99.90
13049;DHT22;6591;51.446;5.404;2022-08-18T02:00:38;20.30;99.90
13049;DHT22;6591;51.446;5.404;2022-08-18T02:03:10;18.70;99.90
13049;DHT22;6591;51.446;5.404;2022-08-18T02:05:45;21.90;99.90
13049;DHT22;6591;51.446;5.404;2022-08-18T02:08:16;20.30;99.90
13049;DHT22;6591;51.446;5.404;2022-08-18T02:10:43;22.10;99.90
13049;DHT22;6591;51.446;5.404;2022-08-18T02:13:10;20.20;99.90
13049;DHT22;6591;51.446;5.404;2022-08-18T02:15:38;22.60;99.90
13049;DHT22;6591;51.446;5.404;2022-08-18T02:18:14;22.00;99.90
13049;DHT22;6591;51.446;5.404;2022-08-18T02:21:10;20.10;99.90
13049;DHT22;6591;51.446;5.404;2022-08-18T02:23:45;20.10;99.90
13049;DHT22;6591;51.446;5.404;2022-08-18T02:26:19;21.40;99.90
13049;DHT22;6591;51.446;5.404;2022-08-18T02:28:47;20.00;99.90
13049;DHT22;6591;51.446;5.404;2022-08-18T02:31:17;20.40;99.90
13049;DHT22;6591;51.446;5.404;2022-08-18T02:33:47;20.00;99.90
13049;DHT22;6591;51.446;5.404;2022-08-18T02:36:19;20.00;99.90
13049;DHT22;6591;51.446;5.404;2022-08-18T02:38:51;21.00;99.90
13049;DHT22;6591;51.446;5.404;2022-08-18T02:41:25;21.10;99.90
13049;DHT22;6591;51.446;5.404;2022-08-18T02:43:56;19.80;99.90
13049;DHT22;6591;51.446;5.404;2022-08-18T02:46:26;22.10;99.90
13049;DHT22;6591;51.446;5.404;2022-08-18T02:48:58;21.50;99.90
13049;DHT22;6591;51.446;5.404;2022-08-18T02:51:26;19.70;99.90
13049;DHT22;6591;51.446;5.404;2022-08-18T02:53:53;21.20;99.90
13049;DHT22;6591;51.446;5.404;2022-08-18T02:56:22;20.30;99.90
13049;DHT22;6591;51.446;5.404;2022-08-18T02:59:09;21.00;99.90
13049;DHT22;6591;51.446;5.404;2022-08-18T03:01:40;19.40;99.90
13049;DHT22;6591;51.446;5.404;2022-08-18T03:04:12;21.40;99.90
13049;DHT22;6591;51.446;5.404;2022-08-18T03:06:42;19.30;99.90
13049;DHT22;6591;51.446;5.404;2022-08-18T03:09:13;19.10;99.90
13049;DHT22;6591;51.446;5.404;2022-08-18T03:11:43;17.00;99.90
13049;DHT22;6591;51.446;5.404;2022-08-18T03:14:11;19.10;99.90
13049;DHT22;6591;51.446;5.404;2022-08-18T03:16:42;19.10;99.90
13049;DHT22;6591;51.446;5.404;2022-08-18T03:19:23;19.00;99.90
13049;DHT22;6591;51.446;5.404;2022-08-18T03:21:52;17.60;99.90
13049;DHT22;6591;51.446;5.404;2022-08-18T03:24:25;20.70;99.90
13049;DHT22;6591;51.446;5.404;2022-08-18T03:26:54;20.70;99.90
13049;DHT22;6591;51.446;5.404;2022-08-18T03:29:23;19.00;99.90
13049;DHT22;6591;51.446;5.404;2022-08-18T03:31:57;19.00;99.90
13049;DHT22;6591;51.446;5.404;2022-08-18T03:34:25;21.30;99.90
13049;DHT22;6591;51.446;5.404;2022-08-18T03:36:52;20.10;99.90
13049;DHT22;6591;51.446;5.404;2022-08-18T03:39:20;20.70;99.90
13049;DHT22;6591;51.446;5.404;2022-08-18T03:41:50;19.00;99.90
13049;DHT22;6591;51.446;5.404;2022-08-18T03:44:28;19.00;99.90
13049;DHT22;6591;51.446;5.404;2022-08-18T03:46:57;19.00;99.90
13049;DHT22;6591;51.446;5.404;2022-08-18T03:49:30;19.00;99.90
13049;DHT22;6591;51.446;5.404;2022-08-18T03:52:00;19.00;99.90
13049;DHT22;6591;51.446;5.404;2022-08-18T03:54:28;19.10;99.90
13049;DHT22;6591;51.446;5.404;2022-08-18T03:57:02;19.10;99.90
13049;DHT22;6591;51.446;5.404;2022-08-18T03:59:29;19.40;99.90
13049;DHT22;6591;51.446;5.404;2022-08-18T04:01:57;18.10;99.90
13049;DHT22;6591;51.446;5.404;2022-08-18T04:04:28;19.20;99.90
13049;DHT22;6591;51.446;5.404;2022-08-18T04:06:57;19.20;99.90
13049;DHT22;6591;51.446;5.404;2022-08-18T04:09:37;19.20;99.90
13049;DHT22;6591;51.446;5.404;2022-08-18T04:12:10;19.30;99.90
13049;DHT22;6591;51.446;5.404;2022-08-18T04:14:44;19.30;99.90
13049;DHT22;6591;51.446;5.404;2022-08-18T04:17:18;19.30;99.90
13049;DHT22;6591;51.446;5.404;2022-08-18T04:19:54;19.30;99.90
13049;DHT22;6591;51.446;5.404;2022-08-18T04:22:23;19.30;99.90
13049;DHT22;6591;51.446;5.404;2022-08-18T04:24:51;19.70;99.90
13049;DHT22;6591;51.446;5.404;2022-08-18T04:27:20;19.20;99.90
13049;DHT22;6591;51.446;5.404;2022-08-18T04:29:48;19.20;99.90
13049;DHT22;6591;51.446;5.404;2022-08-18T04:32:15;19.30;99.90
13049;DHT22;6591;51.446;5.404;2022-08-18T04:34:43;19.20;99.90
13049;DHT22;6591;51.446;5.404;2022-08-18T04:37:11;19.20;99.90
13049;DHT22;6591;51.446;5.404;2022-08-18T04:39:39;19.30;99.90
13049;DHT22;6591;51.446;5.404;2022-08-18T04:42:07;19.20;99.90
13049;DHT22;6591;51.446;5.404;2022-08-18T04:44:35;19.20;99.90
13049;DHT22;6591;51.446;5.404;2022-08-18T04:47:04;20.80;99.90
13049;DHT22;6591;51.446;5.404;2022-08-18T04:49:35;19.30;99.90
13049;DHT22;6591;51.446;5.404;2022-08-18T04:52:04;19.20;99.90
13049;DHT22;6591;51.446;5.404;2022-08-18T04:55:08;19.20;99.90
13049;DHT22;6591;51.446;5.404;2022-08-18T04:57:36;19.30;99.90
13049;DHT22;6591;51.446;5.404;2022-08-18T05:00:04;19.20;99.90
13049;DHT22;6591;51.446;5.404;2022-08-18T05:02:32;19.30;99.90
13049;DHT22;6591;51.446;5.404;2022-08-18T05:05:00;21.40;99.90
13049;DHT22;6591;51.446;5.404;2022-08-18T05:07:30;19.50;99.90
13049;DHT22;6591;51.446;5.404;2022-08-18T05:09:57;21.20;99.90
13049;DHT22;6591;51.446;5.404;2022-08-18T05:12:28;21.50;99.90
13049;DHT22;6591;51.446;5.404;2022-08-18T05:14:55;19.40;99.90
13049;DHT22;6591;51.446;5.404;2022-08-18T05:17:23;19.50;99.90
13049;DHT22;6591;51.446;5.404;2022-08-18T05:19:57;21.40;99.90
13049;DHT22;6591;51.446;5.404;2022-08-18T05:22:28;19.50;99.90
13049;DHT22;6591;51.446;5.404;2022-08-18T05:24:58;21.00;99.90
13049;DHT22;6591;51.446;5.404;2022-08-18T05:27:34;19.60;99.90
13049;DHT22;6591;51.446;5.404;2022-08-18T05:30:07;19.50;99.90
13049;DHT22;6591;51.446;5.404;2022-08-18T05:32:43;19.60;99.90
13049;DHT22;6591;51.446;5.404;2022-08-18T05:35:34;19.70;99.90
13049;DHT22;6591;51.446;5.404;2022-08-18T05:41:24;19.70;99.90
13049;DHT22;6591;51.446;5.404;2022-08-18T05:43:56;19.80;99.90
13049;DHT22;6591;51.446;5.404;2022-08-18T05:46:52;19.80;99.90
13049;DHT22;6591;51.446;5.404;2022-08-18T05:49:24;19.90;99.90
13049;DHT22;6591;51.446;5.404;2022-08-18T05:51:57;22.20;99.90
13049;DHT22;6591;51.446;5.404;2022-08-18T05:54:44;20.10;99.90
13049;DHT22;6591;51.446;5.404;2022-08-18T05:57:42;22.50;99.90
13049;DHT22;6591;51.446;5.404;2022-08-18T06:00:18;20.10;99.90
13049;DHT22;6591;51.446;5.404;2022-08-18T06:02:57;20.20;99.90
13049;DHT22;6591;51.446;5.404;2022-08-18T06:05:49;20.20;99.90
13049;DHT22;6591;51.446;5.404;2022-08-18T06:08:22;20.20;99.90
13049;DHT22;6591;51.446;5.404;2022-08-18T06:10:53;20.30;99.90
13049;DHT22;6591;51.446;5.404;2022-08-18T06:13:20;20.30;99.90
13049;DHT22;6591;51.446;5.404;2022-08-18T06:24:51;20.50;99.90
13049;DHT22;6591;51.446;5.404;2022-08-18T06:27:44;20.50;99.90
13049;DHT22;6591;51.446;5.404;2022-08-18T06:31:01;20.00;99.90
13049;DHT22;6591;51.446;5.404;2022-08-18T06:34:19;20.70;99.90
13049;DHT22;6591;51.446;5.404;2022-08-18T06:39:54;20.80;99.90
13049;DHT22;6591;51.446;5.404;2022-08-18T06:42:25;23.10;99.90
13049;DHT22;6591;51.446;5.404;2022-08-18T06:44:59;21.00;99.90
13049;DHT22;6591;51.446;5.404;2022-08-18T06:50:23;21.10;99.90
13049;DHT22;6591;51.446;5.404;2022-08-18T06:53:02;19.70;99.90
13049;DHT22;6591;51.446;5.404;2022-08-18T06:55:44;21.30;99.90
13049;DHT22;6591;51.446;5.404;2022-08-18T07:06:24;23.80;99.90
13049;DHT22;6591;51.446;5.404;2022-08-18T07:09:22;21.60;99.90
13049;DHT22;6591;51.446;5.404;2022-08-18T07:12:07;21.70;99.90
13049;DHT22;6591;51.446;5.404;2022-08-18T07:14:49;21.70;99.90
13049;DHT22;6591;51.446;5.404;2022-08-18T07:17:22;21.90;99.90
13049;DHT22;6591;51.446;5.404;2022-08-18T07:20:20;22.00;99.90
13049;DHT22;6591;51.446;5.404;2022-08-18T07:22:56;22.00;99.90
13049;DHT22;6591;51.446;5.404;2022-08-18T07:25:41;22.10;99.90
13049;DHT22;6591;51.446;5.404;2022-08-18T07:28:37;22.20;99.90
13049;DHT22;6591;51.446;5.404;2022-08-18T07:34:09;22.60;99.90
13049;DHT22;6591;51.446;5.404;2022-08-18T07:36:58;24.00;99.90
13049;DHT22;6591;51.446;5.404;2022-08-18T07:39:37;22.80;99.90
13049;DHT22;6591;51.446;5.404;2022-08-18T07:45:41;23.00;99.90
13049;DHT22;6591;51.446;5.404;2022-08-18T07:48:20;23.00;99.90
13049;DHT22;6591;51.446;5.404;2022-08-18T07:53:55;23.20;99.90
13049;DHT22;6591;51.446;5.404;2022-08-18T07:56:34;23.30;99.90
13049;DHT22;6591;51.446;5.404;2022-08-18T07:59:41;23.50;99.90
13049;DHT22;6591;51.446;5.404;2022-08-18T08:02:35;23.30;99.90
13049;DHT22;6591;51.446;5.404;2022-08-18T08:05:16;23.70;99.90
13049;DHT22;6591;51.446;5.404;2022-08-18T08:08:22;21.90;99.90
13049;DHT22;6591;51.446;5.404;2022-08-18T08:23:27;24.20;99.90
13049;DHT22;6591;51.446;5.404;2022-08-18T08:32:05;23.00;99.90
13049;DHT22;6591;51.446;5.404;2022-08-18T08:34:55;24.80;99.90
13049;DHT22;6591;51.446;5.404;2022-08-18T08:40:53;25.20;99.90
13049;DHT22;6591;51.446;5.404;2022-08-18T08:43:33;25.40;99.90
13049;DHT22;6591;51.446;5.404;2022-08-18T08:46:07;25.50;99.90
13049;DHT22;6591;51.446;5.404;2022-08-18T08:48:55;25.60;99.90
13049;DHT22;6591;51.446;5.404;2022-08-18T08:51:38;27.60;99.90
13049;DHT22;6591;51.446;5.404;2022-08-18T08:54:15;25.80;99.90
13049;DHT22;6591;51.446;5.404;2022-08-18T08:56:49;25.80;99.90
13049;DHT22;6591;51.446;5.404;2022-08-18T08:59:20;25.80;99.90
13049;DHT22;6591;51.446;5.404;2022-08-18T09:04:58;25.90;99.90
13049;DHT22;6591;51.446;5.404;2022-08-18T09:10:53;26.10;99.90
13049;DHT22;6591;51.446;5.404;2022-08-18T09:14:14;26.30;99.90
13049;DHT22;6591;51.446;5.404;2022-08-18T09:17:10;26.60;99.90
13049;DHT22;6591;51.446;5.404;2022-08-18T09:22:49;27.30;99.90
13049;DHT22;6591;51.446;5.404;2022-08-18T09:36:28;28.20;99.90
13049;DHT22;6591;51.446;5.404;2022-08-18T09:39:33;27.80;99.90
13049;DHT22;6591;51.446;5.404;2022-08-18T09:42:55;28.00;99.90
13049;DHT22;6591;51.446;5.404;2022-08-18T09:45:56;28.30;99.90
13049;DHT22;6591;51.446;5.404;2022-08-18T09:48:34;28.90;99.90
13049;DHT22;6591;51.446;5.404;2022-08-18T09:54:13;29.00;99.90
13049;DHT22;6591;51.446;5.404;2022-08-18T09:57:05;29.20;99.90
13049;DHT22;6591;51.446;5.404;2022-08-18T10:05:25;29.50;99.90
13049;DHT22;6591;51.446;5.404;2022-08-18T10:10:56;29.70;99.20
13049;DHT22;6591;51.446;5.404;2022-08-18T10:17:27;30.00;97.40
13049;DHT22;6591;51.446;5.404;2022-08-18T10:20:20;30.00;98.60
13049;DHT22;6591;51.446;5.404;2022-08-18T10:22:56;30.00;97.90
13049;DHT22;6591;51.446;5.404;2022-08-18T10:25:43;30.00;99.00
13049;DHT22;6591;51.446;5.404;2022-08-18T10:31:23;30.00;96.50
13049;DHT22;6591;51.446;5.404;2022-08-18T10:34:10;30.00;97.70
13049;DHT22;6591;51.446;5.404;2022-08-18T10:36:58;30.00;96.00
13049;DHT22;6591;51.446;5.404;2022-08-18T10:42:24;30.00;94.70
13049;DHT22;6591;51.446;5.404;2022-08-18T10:45:27;32.20;95.80
13049;DHT22;6591;51.446;5.404;2022-08-18T10:48:21;30.00;95.50
13049;DHT22;6591;51.446;5.404;2022-08-18T10:51:10;30.00;94.90
13049;DHT22;6591;51.446;5.404;2022-08-18T10:57:50;30.30;94.90
13049;DHT22;6591;51.446;5.404;2022-08-18T11:07:11;30.50;93.60
13049;DHT22;6591;51.446;5.404;2022-08-18T11:10:17;30.50;94.10
13049;DHT22;6591;51.446;5.404;2022-08-18T11:16:12;30.50;94.30
13049;DHT22;6591;51.446;5.404;2022-08-18T11:18:46;30.60;92.70
13049;DHT22;6591;51.446;5.404;2022-08-18T11:21:39;32.70;94.30
13049;DHT22;6591;51.446;5.404;2022-08-18T11:27:01;30.60;92.20
13049;DHT22;6591;51.446;5.404;2022-08-18T11:29:48;30.70;91.00
13049;DHT22;6591;51.446;5.404;2022-08-18T11:32:23;30.80;92.40
13049;DHT22;6591;51.446;5.404;2022-08-18T11:35:05;30.90;92.20
13049;DHT22;6591;51.446;5.404;2022-08-18T11:37:48;33.00;92.90
13049;DHT22;6591;51.446;5.404;2022-08-18T11:40:30;31.10;92.00
13049;DHT22;6591;51.446;5.404;2022-08-18T11:43:32;31.10;92.00
13049;DHT22;6591;51.446;5.404;2022-08-18T11:48:58;31.40;90.60
13049;DHT22;6591;51.446;5.404;2022-08-18T11:51:54;31.50;91.10
13049;DHT22;6591;51.446;5.404;2022-08-18T11:54:38;31.50;90.00
13049;DHT22;6591;51.446;5.404;2022-08-18T11:57:48;33.70;90.70
13049;DHT22;6591;51.446;5.404;2022-08-18T12:00:54;31.60;90.00
13049;DHT22;6591;51.446;5.404;2022-08-18T12:03:37;31.60;86.70
13049;DHT22;6591;51.446;5.404;2022-08-18T12:09:02;31.80;88.00
13049;DHT22;6591;51.446;5.404;2022-08-18T12:11:36;32.30;87.80
13049;DHT22;6591;51.446;5.404;2022-08-18T12:14:23;32.10;87.30
13049;DHT22;6591;51.446;5.404;2022-08-18T12:17:00;32.30;85.10
13049;DHT22;6591;51.446;5.404;2022-08-18T12:19:27;32.50;86.50
13049;DHT22;6591;51.446;5.404;2022-08-18T12:22:21;32.60;87.60
13049;DHT22;6591;51.446;5.404;2022-08-18T12:24:53;33.00;87.70
13049;DHT22;6591;51.446;5.404;2022-08-18T12:27:23;33.30;87.80
13049;DHT22;6591;51.446;5.404;2022-08-18T12:29:58;33.60;85.30
13049;DHT22;6591;51.446;5.404;2022-08-18T12:32:31;33.90;84.90
13049;DHT22;6591;51.446;5.404;2022-08-18T12:35:16;34.10;81.90
13049;DHT22;6591;51.446;5.404;2022-08-18T12:37:48;34.20;82.80
13049;DHT22;6591;51.446;5.404;2022-08-18T12:40:35;34.40;82.10
13049;DHT22;6591;51.446;5.404;2022-08-18T12:43:02;34.60;80.30
13049;DHT22;6591;51.446;5.404;2022-08-18T12:45:31;34.90;80.70
13049;DHT22;6591;51.446;5.404;2022-08-18T12:47:59;35.00;80.60
13049;DHT22;6591;51.446;5.404;2022-08-18T12:50:30;35.10;80.70
13049;DHT22;6591;51.446;5.404;2022-08-18T12:53:03;35.20;80.30
13049;DHT22;6591;51.446;5.404;2022-08-18T12:55:35;35.30;80.10
13049;DHT22;6591;51.446;5.404;2022-08-18T12:58:09;35.30;77.70
13049;DHT22;6591;51.446;5.404;2022-08-18T13:00:40;35.30;74.80
13049;DHT22;6591;51.446;5.404;2022-08-18T13:03:08;35.20;74.70
13049;DHT22;6591;51.446;5.404;2022-08-18T13:05:35;35.00;73.30
13049;DHT22;6591;51.446;5.404;2022-08-18T13:08:05;34.70;73.20
13049;DHT22;6591;51.446;5.404;2022-08-18T13:10:59;34.40;73.80
13049;DHT22;6591;51.446;5.404;2022-08-18T13:13:47;34.00;73.30
13049;DHT22;6591;51.446;5.404;2022-08-18T13:16:21;33.90;75.00
13049;DHT22;6591;51.446;5.404;2022-08-18T13:19:09;33.60;75.80
13049;DHT22;6591;51.446;5.404;2022-08-18T13:21:38;33.60;76.60
13049;DHT22;6591;51.446;5.404;2022-08-18T13:24:09;33.60;75.70
13049;DHT22;6591;51.446;5.404;2022-08-18T13:26:45;33.80;75.70
13049;DHT22;6591;51.446;5.404;2022-08-18T13:29:15;34.00;72.90
13049;DHT22;6591;51.446;5.404;2022-08-18T13:31:44;34.00;73.50
13049;DHT22;6591;51.446;5.404;2022-08-18T13:34:24;34.30;75.40
13049;DHT22;6591;51.446;5.404;2022-08-18T13:36:56;34.30;75.90
13049;DHT22;6591;51.446;5.404;2022-08-18T13:39:26;34.40;76.40
13049;DHT22;6591;51.446;5.404;2022-08-18T13:42:02;34.60;76.90
13049;DHT22;6591;51.446;5.404;2022-08-18T13:44:49;34.90;76.40
13049;DHT22;6591;51.446;5.404;2022-08-18T13:47:20;35.30;74.40
13049;DHT22;6591;51.446;5.404;2022-08-18T13:49:49;36.20;72.60
13049;DHT22;6591;51.446;5.404;2022-08-18T13:52:27;35.60;71.10
13049;DHT22;6591;51.446;5.404;2022-08-18T13:55:13;35.80;69.60
13049;DHT22;6591;51.446;5.404;2022-08-18T13:57:43;35.80;67.00
13049;DHT22;6591;51.446;5.404;2022-08-18T14:00:22;35.70;66.30
13049;DHT22;6591;51.446;5.404;2022-08-18T14:02:57;35.40;64.50
13049;DHT22;6591;51.446;5.404;2022-08-18T14:05:29;35.30;65.60
13049;DHT22;6591;51.446;5.404;2022-08-18T14:08:18;35.00;65.80
13049;DHT22;6591;51.446;5.404;2022-08-18T14:10:48;34.90;66.70
13049;DHT22;6591;51.446;5.404;2022-08-18T14:13:18;34.70;66.80
13049;DHT22;6591;51.446;5.404;2022-08-18T14:15:52;34.70;66.50
13049;DHT22;6591;51.446;5.404;2022-08-18T14:18:23;34.80;66.70
13049;DHT22;6591;51.446;5.404;2022-08-18T14:20:56;34.80;67.60
13049;DHT22;6591;51.446;5.404;2022-08-18T14:23:49;35.00;68.20
13049;DHT22;6591;51.446;5.404;2022-08-18T14:26:36;35.10;67.90
13049;DHT22;6591;51.446;5.404;2022-08-18T14:29:17;35.40;65.50
13049;DHT22;6591;51.446;5.404;2022-08-18T14:32:06;35.60;63.50
13049;DHT22;6591;51.446;5.404;2022-08-18T14:34:34;35.70;62.20
13049;DHT22;6591;51.446;5.404;2022-08-18T14:37:01;35.60;63.00
13049;DHT22;6591;51.446;5.404;2022-08-18T14:39:29;38.00;65.20
13049;DHT22;6591;51.446;5.404;2022-08-18T14:41:56;35.50;63.00
13049;DHT22;6591;51.446;5.404;2022-08-18T14:44:29;35.60;62.80
13049;DHT22;6591;51.446;5.404;2022-08-18T14:47:01;36.20;63.80
13049;DHT22;6591;51.446;5.404;2022-08-18T14:49:28;35.40;63.80
13049;DHT22;6591;51.446;5.404;2022-08-18T14:52:00;37.70;66.20
13049;DHT22;6591;51.446;5.404;2022-08-18T14:54:29;35.50;64.10
13049;DHT22;6591;51.446;5.404;2022-08-18T14:56:59;35.60;64.10
13049;DHT22;6591;51.446;5.404;2022-08-18T14:59:29;35.70;63.00
13049;DHT22;6591;51.446;5.404;2022-08-18T15:02:08;35.80;62.10
13049;DHT22;6591;51.446;5.404;2022-08-18T15:04:40;36.00;62.80
13049;DHT22;6591;51.446;5.404;2022-08-18T15:07:22;36.20;62.20
13049;DHT22;6591;51.446;5.404;2022-08-18T15:09:50;36.00;61.50
13049;DHT22;6591;51.446;5.404;2022-08-18T15:12:37;37.20;62.00
13049;DHT22;6591;51.446;5.404;2022-08-18T15:15:07;36.30;62.40
13049;DHT22;6591;51.446;5.404;2022-08-18T15:17:43;36.50;61.80
13049;DHT22;6591;51.446;5.404;2022-08-18T15:20:17;36.70;61.50
13049;DHT22;6591;51.446;5.404;2022-08-18T15:22:58;36.90;60.80
13049;DHT22;6591;51.446;5.404;2022-08-18T15:25:50;37.10;60.10
13049;DHT22;6591;51.446;5.404;2022-08-18T15:28:20;37.20;58.90
13049;DHT22;6591;51.446;5.404;2022-08-18T15:30:51;37.10;58.20
13049;DHT22;6591;51.446;5.404;2022-08-18T15:33:38;36.40;57.30
13049;DHT22;6591;51.446;5.404;2022-08-18T15:36:08;37.00;58.80
13049;DHT22;6591;51.446;5.404;2022-08-18T15:38:36;36.80;57.80
13049;DHT22;6591;51.446;5.404;2022-08-18T15:41:03;36.70;57.50
13049;DHT22;6591;51.446;5.404;2022-08-18T15:43:35;36.50;57.50
13049;DHT22;6591;51.446;5.404;2022-08-18T15:46:12;36.50;57.70
13049;DHT22;6591;51.446;5.404;2022-08-18T15:48:39;36.30;57.00
13049;DHT22;6591;51.446;5.404;2022-08-18T15:51:06;34.40;55.30
13049;DHT22;6591;51.446;5.404;2022-08-18T15:53:38;36.10;56.60
13049;DHT22;6591;51.446;5.404;2022-08-18T15:56:19;35.90;57.50
13049;DHT22;6591;51.446;5.404;2022-08-18T15:58:51;35.70;57.60
13049;DHT22;6591;51.446;5.404;2022-08-18T16:01:20;35.60;57.70
13049;DHT22;6591;51.446;5.404;2022-08-18T16:03:58;35.50;58.20
13049;DHT22;6591;51.446;5.404;2022-08-18T16:06:27;35.40;57.90
13049;DHT22;6591;51.446;5.404;2022-08-18T16:08:59;35.30;58.10
13049;DHT22;6591;51.446;5.404;2022-08-18T16:11:28;35.30;58.20
13049;DHT22;6591;51.446;5.404;2022-08-18T16:13:59;35.30;58.30
13049;DHT22;6591;51.446;5.404;2022-08-18T16:16:27;35.30;58.00
13049;DHT22;6591;51.446;5.404;2022-08-18T16:19:03;35.40;58.60
13049;DHT22;6591;51.446;5.404;2022-08-18T16:21:35;35.50;58.50
13049;DHT22;6591;51.446;5.404;2022-08-18T16:24:07;35.50;57.90
13049;DHT22;6591;51.446;5.404;2022-08-18T16:26:34;35.50;57.80
13049;DHT22;6591;51.446;5.404;2022-08-18T16:29:02;35.50;57.50
13049;DHT22;6591;51.446;5.404;2022-08-18T16:31:29;35.50;58.10
13049;DHT22;6591;51.446;5.404;2022-08-18T16:33:56;33.50;56.50
13049;DHT22;6591;51.446;5.404;2022-08-18T16:36:26;35.30;57.30
13049;DHT22;6591;51.446;5.404;2022-08-18T16:38:53;35.40;57.50
13049;DHT22;6591;51.446;5.404;2022-08-18T16:41:25;35.30;57.50
13049;DHT22;6591;51.446;5.404;2022-08-18T16:43:52;35.30;57.60
13049;DHT22;6591;51.446;5.404;2022-08-18T16:46:22;35.10;57.70
13049;DHT22;6591;51.446;5.404;2022-08-18T16:48:53;35.20;58.50
13049;DHT22;6591;51.446;5.404;2022-08-18T16:51:23;34.90;57.90
13049;DHT22;6591;51.446;5.404;2022-08-18T16:53:52;34.80;58.20
13049;DHT22;6591;51.446;5.404;2022-08-18T16:56:22;34.60;57.90
13049;DHT22;6591;51.446;5.404;2022-08-18T16:58:51;34.60;58.30
13049;DHT22;6591;51.446;5.404;2022-08-18T17:01:37;34.50;58.50
13049;DHT22;6591;51.446;5.404;2022-08-18T17:04:26;34.40;58.60
13049;DHT22;6591;51.446;5.404;2022-08-18T17:06:56;34.40;58.60
13049;DHT22;6591;51.446;5.404;2022-08-18T17:09:25;35.20;58.80
13049;DHT22;6591;51.446;5.404;2022-08-18T17:11:53;35.10;58.70
13049;DHT22;6591;51.446;5.404;2022-08-18T17:14:25;34.10;58.40
13049;DHT22;6591;51.446;5.404;2022-08-18T17:16:54;33.80;57.90
13049;DHT22;6591;51.446;5.404;2022-08-18T17:19:31;33.70;57.70
13049;DHT22;6591;51.446;5.404;2022-08-18T17:22:00;33.50;57.90
13049;DHT22;6591;51.446;5.404;2022-08-18T17:24:29;33.10;57.70
13049;DHT22;6591;51.446;5.404;2022-08-18T17:27:18;32.90;57.90
13049;DHT22;6591;51.446;5.404;2022-08-18T17:32:47;32.20;59.10
13049;DHT22;6591;51.446;5.404;2022-08-18T17:40:45;31.30;60.40
13049;DHT22;6591;51.446;5.404;2022-08-18T17:43:17;31.00;60.80
13049;DHT22;6591;51.446;5.404;2022-08-18T17:45:56;31.20;61.50
13049;DHT22;6591;51.446;5.404;2022-08-18T17:48:31;30.80;62.30
13049;DHT22;6591;51.446;5.404;2022-08-18T17:51:12;30.30;62.40
13049;DHT22;6591;51.446;5.404;2022-08-18T17:57:18;29.70;63.70
13049;DHT22;6591;51.446;5.404;2022-08-18T18:02:44;29.40;65.20
13049;DHT22;6591;51.446;5.404;2022-08-18T18:05:16;29.20;65.60
13049;DHT22;6591;51.446;5.404;2022-08-18T18:10:42;29.00;67.00
13049;DHT22;6591;51.446;5.404;2022-08-18T18:13:32;28.80;68.40
13049;DHT22;6591;51.446;5.404;2022-08-18T18:16:26;28.70;68.30
13049;DHT22;6591;51.446;5.404;2022-08-18T18:19:04;28.60;69.50
13049;DHT22;6591;51.446;5.404;2022-08-18T18:22:04;28.50;69.20
13049;DHT22;6591;51.446;5.404;2022-08-18T18:24:38;28.40;70.30
13049;DHT22;6591;51.446;5.404;2022-08-18T18:32:57;28.20;71.30
13049;DHT22;6591;51.446;5.404;2022-08-18T18:41:03;27.90;72.40
13049;DHT22;6591;51.446;5.404;2022-08-18T18:43:48;27.70;72.30
13049;DHT22;6591;51.446;5.404;2022-08-18T18:46:39;28.20;72.70
13049;DHT22;6591;51.446;5.404;2022-08-18T18:49:24;27.50;73.70
13049;DHT22;6591;51.446;5.404;2022-08-18T18:55:05;27.20;74.60
13049;DHT22;6591;51.446;5.404;2022-08-18T19:01:06;26.80;76.10
13049;DHT22;6591;51.446;5.404;2022-08-18T19:03:56;26.60;74.90
13049;DHT22;6591;51.446;5.404;2022-08-18T19:06:50;26.50;76.30
13049;DHT22;6591;51.446;5.404;2022-08-18T19:09:36;26.20;76.60
13049;DHT22;6591;51.446;5.404;2022-08-18T19:12:31;26.10;77.00
13049;DHT22;6591;51.446;5.404;2022-08-18T19:15:09;25.90;78.10
13049;DHT22;6591;51.446;5.404;2022-08-18T19:20:23;25.60;78.20
13049;DHT22;6591;51.446;5.404;2022-08-18T19:23:12;24.90;77.90
13049;DHT22;6591;51.446;5.404;2022-08-18T19:26:13;25.40;80.50
13049;DHT22;6591;51.446;5.404;2022-08-18T19:28:51;25.20;79.40